Flight Track Log - Related Links

Times and Time Zones

All times are in EDT time to prevent confusion due to time zone crossing. See the N989WU flight status page for this flight to view local times or setup timezone preferences in your user account.

Time Position Orientation Groundspeed Altitude Reporting Facility
EDT Latitude Longitude Course Direction KTS MPH feet Rate Location/Type
Tue 08:30:30 32.1144 -81.8647 205° Southwest 100 115 2,400  Level Jacksonville Center
Tue 08:31:30 32.0914 -81.8772 205° Southwest 100 115 2,900 500 Climbing Jacksonville Center
Tue 08:32:30 32.0708 -81.8897 207° Southwest 100 115 3,400 550 Climbing Jacksonville Center
Tue 08:33:30 32.0500 -81.9072 215° Southwest 100 115 4,000 550 Climbing Jacksonville Center
Tue 08:34:30 32.0250 -81.9247 211° Southwest 100 115 4,500 500 Climbing Jacksonville Center
Tue 08:35:30 32.0022 -81.9397 209° Southwest 100 115 5,000 450 Climbing Jacksonville Center
Tue 08:36:30 31.9792 -81.9497 200° South 100 115 5,400 400 Climbing Jacksonville Center
Tue 08:37:30 31.9564 -81.9522 185° South 93 107 5,800 400 Climbing Jacksonville Center
Tue 08:38:30 31.9272 -81.9503 177° South 93 107 6,200 400 Climbing Jacksonville Center
Tue 08:39:30 31.9019 -81.9456 171° South 98 113 6,600 350 Climbing Jacksonville Center
Tue 08:40:30 31.8747 -81.9433 176° South 98 113 6,900 350 Climbing Jacksonville Center
Tue 08:41:30 31.8519 -81.9461 186° South 103 119 7,300 350 Climbing Jacksonville Center
Tue 08:42:30 31.8247 -81.9439 176° South 103 119 7,600 300 Climbing Jacksonville Center
Tue 08:43:30 31.7956 -81.9467 185° South 103 119 7,900 150 Climbing Jacksonville Center
Tue 08:44:30 31.7664 -81.9469 180° South 103 119 7,900  Level Jacksonville Center
Tue 08:45:30 31.7372 -81.9497 185° South 103 119 7,900  Level Jacksonville Center
Tue 08:46:30 31.7119 -81.9500 181° South 103 119 7,900 50 Level Jacksonville Center
Tue 08:47:30 31.6808 -81.9550 188° South 103 119 8,000  Climbing Jacksonville Center
Tue 08:48:30 31.6536 -81.9553 180° South 103 119 7,900 -100 Descending Jacksonville Center
Tue 08:49:30 31.6244 -81.9581 185° South 103 119 7,800 -50 Descending Jacksonville Center
Tue 08:50:30 31.6014 -81.9583 181° South 103 119 7,800  Level Jacksonville Center
Tue 08:51:30 31.5744 -81.9611 185° South 103 119 7,800 50 Level Jacksonville Center
Tue 08:52:30 31.5492 -81.9614 181° South 98 113 7,900 100 Climbing Jacksonville Center
Tue 08:53:30 31.5222 -81.9617 181° South 98 113 8,000  Climbing Jacksonville Center
Tue 08:54:30 31.4950 -81.9594 176° South 98 113 7,900 -50 Descending Jacksonville Center
Tue 08:55:30 31.4719 -81.9572 175° South 104 120 7,900  Level Jacksonville Center
Tue 08:56:30 31.4386 -81.9550 177° South 104 120 7,900 -50 Level Jacksonville Center
Tue 08:57:30 31.4094 -81.9531 177° South 104 120 7,800 -50 Descending Jacksonville Center
Tue 08:58:30 31.3822 -81.9483 172° South 104 120 7,800 100 Level Jacksonville Center
Tue 08:59:30 31.3572 -81.9486 181° South 99 114 8,000 100 Climbing Jacksonville Center
Tue 09:00:30 31.3300 -81.9489 180° South 104 120 8,000  Level Jacksonville Center
Tue 09:01:30 31.2986 -81.9467 177° South 104 120 8,000  Level Jacksonville Center
Tue 09:02:30 31.2714 -81.9469 180° South 99 114 8,000 50 Level Jacksonville Center
Tue 09:03:30 31.2464 -81.9472 181° South 99 114 8,100 50 Climbing Jacksonville Center
Tue 09:04:30 31.2214 -81.9500 185° South 99 114 8,100  Level Jacksonville Center
Tue 09:05:30 31.1942 -81.9503 181° South 99 114 8,100 -71 Level Jacksonville Center
Tue 09:05:55 31.1775 -81.9503 180° South 98 113 8,000  Descending Jacksonville Center
Tue 09:06:30 31.1608 -81.9506 181° South 105 121 8,100 -98 Climbing Jacksonville Center
Tue 09:06:56 31.1483 -81.9531 190° South 102 117 7,900 -100 Descending Jacksonville Center
Tue 09:07:30 31.1336 -81.9533 181° South 105 121 8,000  Climbing Jacksonville Center
Tue 09:07:57 31.1211 -81.9583 199° South 104 120 7,900  Descending Jacksonville Center
Tue 09:08:30 31.1086 -81.9561 171° South 105 121 8,000  Climbing Jacksonville Center
Tue 09:08:58 31.0919 -81.9586 187° South 104 120 7,900  Descending Jacksonville Center
Tue 09:09:30 31.0753 -81.9586 180° South 105 121 8,000 -98 Climbing Jacksonville Center
Tue 09:09:59 31.0628 -81.9614 191° South 102 117 7,800 -100 Descending Jacksonville Center
Tue 09:10:30 31.0481 -81.9639 188° South 105 121 7,900  Climbing Jacksonville Center
Tue 09:11:00 31.0336 -81.9639 180° South 101 116 7,800  Descending Jacksonville Center
Tue 09:11:30 31.0211 -81.9667 191° South 105 121 7,900 -100 Climbing Jacksonville Center
Tue 09:12:00 31.0064 -81.9667 180° South 99 114 7,700  Descending Jacksonville Center
Tue 09:12:30 30.9939 -81.9692 190° South 105 121 7,900 197 Climbing Jacksonville Center
Tue 09:13:01 30.9794 -81.9717 188° South 98 113 7,900 100 Level Jacksonville Center
Tue 09:13:30 30.9669 -81.9744 191° South 105 121 8,000  Climbing Jacksonville Center
Tue 09:14:02 30.9542 -81.9719 170° South 90 104 7,900  Descending Jacksonville Center
Tue 09:14:30 30.9417 -81.9769 199° South 105 121 8,000 98 Climbing Jacksonville Center
Tue 09:15:03 30.9272 -81.9772 181° South 95 109 8,000 100 Level Jacksonville Center
Tue 09:15:30 30.9147 -81.9797 190° South 105 121 8,100  Climbing Jacksonville Center
Tue 09:16:04 30.8981 -81.9822 187° South 101 116 8,000 -126 Descending Jacksonville Center
Tue 09:17:05 30.8708 -81.9825 181° South 101 116 7,900 -49 Descending Jacksonville Center
Tue 09:18:06 30.8439 -81.9900 193° South 98 113 7,900 -50 Level Jacksonville Center
Tue 09:19:06 30.8144 -81.9928 185° South 99 114 7,800 -50 Descending Jacksonville Center
Tue 09:20:07 30.7894 -81.9978 190° South 96 110 7,800 49 Level Jacksonville Center
Tue 09:21:08 30.7644 -82.0028 190° South 91 105 7,900 50 Climbing Jacksonville Center
Tue 09:22:08 30.7394 -82.0103 194° South 91 105 7,900 50 Level Jacksonville Center
Tue 09:23:09 30.7125 -82.0156 190° South 91 105 8,000 49 Climbing Jacksonville Center
Tue 09:24:10 30.6875 -82.0231 194° South 91 105 8,000  Level Jacksonville Center
Tue 09:25:10 30.6625 -82.0281 190° South 93 107 8,000  Level Jacksonville Center
Tue 09:26:11 30.6372 -82.0331 190° South 93 107 8,000 -49 Level Jacksonville Center
Tue 09:27:12 30.6103 -82.0381 189° South 95 109 7,900 -49 Descending Jacksonville Center
Tue 09:28:13 30.5811 -82.0408 185° South 106 122 7,900 -49 Level Jacksonville Center
Tue 09:29:14 30.5561 -82.0411 181° South 92 106 7,800 -50 Descending Jacksonville Center
Tue 09:30:14 30.5267 -82.0461 188° South 96 110 7,800  Level Jacksonville Center
Tue 09:31:15 30.5017 -82.0486 185° South 98 113 7,800  Level Jacksonville Center
Tue 09:32:16 30.4747 -82.0489 181° South 96 110 7,800  Level Jacksonville Center
Tue 09:33:17 30.4475 -82.0539 189° South 96 110 7,800 98 Level Jacksonville Center
Tue 09:34:18 30.4225 -82.0592 190° South 87 100 8,000 98 Climbing Jacksonville Center
Tue 09:35:19 30.3953 -82.0642 189° South 92 106 8,000 -99 Level Jacksonville Center
Tue 09:36:19 30.3683 -82.0644 181° South 99 114 7,800 -347 Descending Jacksonville Center
Tue 09:37:20 30.3389 -82.0647 180° South 117 135 7,300 -393 Descending Jacksonville Center
Tue 09:38:21 30.3036 -82.0650 180° South 117 135 7,000 -197 Descending Jacksonville Center
Tue 09:39:22 30.2742 -82.0628 176° South 107 123 6,900 -49 Descending Jacksonville Center
Tue 09:40:23 30.2472 -82.0653 185° South 94 108 6,900  Level Jacksonville Center
Tue 09:41:24 30.2200 -82.0706 190° South 93 107 6,900  Level Jacksonville Center
Tue 09:42:25 30.1928 -82.0706 180° South 93 107 6,900 49 Level Jacksonville Center
Tue 09:43:26 30.1678 -82.0758 190° South 93 107 7,000  Climbing Jacksonville Center
Tue 09:44:27 30.1408 -82.0783 185° South 99 114 6,900 -49 Descending Jacksonville Center
Tue 09:45:28 30.1136 -82.0808 185° South 101 116 6,900  Level Jacksonville Center
Tue 09:46:29 30.0864 -82.0811 181° South 100 115 6,900 -49 Level Jacksonville Center
Tue 09:47:30 30.0553 -82.0864 188° South 101 116 6,800 -50 Descending Jacksonville Center
Tue 09:48:30 30.0281 -82.0864 180° South 101 116 6,800  Level Jacksonville Center
Tue 09:49:31 29.9989 -82.0914 188° South 101 116 6,800 49 Level Jacksonville Center
Tue 09:50:32 29.9717 -82.0917 181° South 98 113 6,900 49 Climbing Jacksonville Center
Tue 09:51:33 29.9447 -82.0967 189° South 98 113 6,900  Level Jacksonville Center
Tue 09:52:34 29.9153 -82.1017 188° South 98 113 6,900  Level Jacksonville Center
Tue 09:53:35 29.8883 -82.1019 181° South 99 114 6,900  Level Jacksonville Center
Tue 09:54:36 29.8611 -82.1069 189° South 98 113 6,900  Level Jacksonville Center
Tue 09:55:37 29.8342 -82.1097 185° South 99 114 6,900 49 Level Jacksonville Center
Tue 09:56:38 29.8047 -82.1147 188° South 99 114 7,000 49 Climbing Jacksonville Center
Tue 09:57:39 29.7756 -82.1197 188° South 99 114 7,000 49 Level Jacksonville Center
Tue 09:58:40 29.7486 -82.1222 185° South 99 114 7,100 49 Climbing Jacksonville Center
Tue 09:59:41 29.7214 -82.1297 193° South 101 116 7,100  Level Jacksonville Center
Tue 10:00:42 29.6900 -82.1300 180° South 102 117 7,100 -49 Level Jacksonville Center
Tue 10:01:43 29.6650 -82.1350 190° South 99 114 7,000 -49 Descending Jacksonville Center
Tue 10:02:44 29.6358 -82.1350 180° South 100 115 7,000  Level Jacksonville Center
Tue 10:03:44 29.6067 -82.1378 185° South 100 115 7,000  Level Jacksonville Center
Tue 10:04:45 29.5794 -82.1403 185° South 100 115 7,000 -49 Level Jacksonville Center
Tue 10:05:46 29.5503 -82.1406 180° South 101 116 6,900 -49 Descending Jacksonville Center
Tue 10:06:47 29.5231 -82.1431 185° South 100 115 6,900  Level Jacksonville Center
Tue 10:07:48 29.4961 -82.1433 181° South 97 112 6,900  Level Jacksonville Center
Tue 10:08:49 29.4689 -82.1436 181° South 97 112 6,900  Level Jacksonville Center
Tue 10:09:50 29.4397 -82.1461 184° South 98 113 6,900  Level Jacksonville Center
Tue 10:10:51 29.4125 -82.1489 185° South 97 112 6,900  Level Jacksonville Center
Tue 10:11:52 29.3875 -82.1489 180° South 97 112 6,900  Level Jacksonville Center
Tue 10:12:53 29.3583 -82.1539 188° South 98 113 6,900 50 Level Jacksonville Center
Tue 10:13:53 29.3333 -82.1542 181° South 91 105 7,000 99 Climbing Jacksonville Center
Tue 10:14:54 29.3061 -82.1497 172° South 93 107 7,100 49 Climbing Jacksonville Center
Tue 10:15:55 29.2789 -82.1497 180° South 95 109 7,100 49 Level Jacksonville Center
Tue 10:16:56 29.2519 -82.1475 176° South 97 112 7,200  Climbing Jacksonville Center
Tue 10:17:57 29.2247 -82.1456 176° South 98 113 7,100 -49 Descending Jacksonville Center
Tue 10:18:58 29.1975 -82.1456 180° South 99 114 7,100  Level Jacksonville Center
Tue 10:19:59 29.1683 -82.1433 176° South 102 117 7,100  Level Jacksonville Center
Tue 10:21:00 29.1392 -82.1436 180° South 101 116 7,100  Level Jacksonville Center
Tue 10:22:01 29.1097 -82.1367 168° South 101 116 7,100  Level Jacksonville Center
Tue 10:23:02 29.0828 -82.1394 185° South 102 117 7,100 -49 Level Jacksonville Center
Tue 10:24:03 29.0533 -82.1397 180° South 104 120 7,000 -49 Descending Jacksonville Center
Tue 10:25:04 29.0242 -82.1397 180° South 105 121 7,000 -49 Level Jacksonville Center
Tue 10:26:05 28.9931 -82.1425 184° South 104 120 6,900 -49 Descending Jacksonville Center
Tue 10:27:07 28.9636 -82.1403 176° South 105 121 6,900  Level Jacksonville Center
Tue 10:28:07 28.9344 -82.1428 184° South 106 122 6,900  Level Jacksonville Center
Tue 10:29:08 28.9053 -82.1383 172° South 107 123 6,900  Level Jacksonville Center
Tue 10:30:09 28.8761 -82.1386 180° South 100 115 6,900 49 Level Jacksonville Center
Tue 10:31:10 28.8511 -82.1364 176° South 92 106 7,000 98 Climbing Jacksonville Center
Tue 10:32:11 28.8239 -82.1342 176° South 94 108 7,100 -38 Climbing Jacksonville Center
Tue 10:33:47 28.7833 -82.1333 179° South 104 120 6,900 -77 Descending Tampa TRACON
Tue 10:34:47 28.7500 -82.1167 156° South 107 123 6,900 -50 Level Tampa TRACON
Tue 10:35:47 28.7167 -82.1167 180° South 101 116 6,800  Descending Tampa TRACON
Tue 10:36:47 28.7000 -82.1167 180° South 98 113 6,900 100 Climbing Tampa TRACON
Tue 10:37:47 28.6667 -82.1167 180° South 93 107 7,000 50 Climbing Tampa TRACON
Tue 10:38:48 28.6500 -82.1167 180° South 96 110 7,000  Level Tampa TRACON
Tue 10:39:48 28.6167 -82.1167 180° South 105 121 7,000 -50 Level Tampa TRACON
Tue 10:40:48 28.5833 -82.1000 156° South 110 127 6,900 -100 Descending Tampa TRACON
Tue 10:41:48 28.5500 -82.1000 180° South 111 128 6,800 -50 Descending Tampa TRACON
Tue 10:42:48 28.5167 -82.1000 180° South 99 114 6,800  Level Tampa TRACON
Tue 10:43:48 28.5000 -82.1000 180° South 97 112 6,800  Level Tampa TRACON
Tue 10:44:48 28.4667 -82.0833 156° South 99 114 6,800  Level Tampa TRACON
Tue 10:45:48 28.4500 -82.0833 180° South 99 114 6,800  Level Tampa TRACON
Tue 10:46:48 28.4167 -82.0833 180° South 98 113 6,800  Level Tampa TRACON
Tue 10:47:48 28.3833 -82.0833 180° South 99 114 6,800 50 Level Tampa TRACON
Tue 10:48:48 28.3667 -82.0833 180° South 99 114 6,900 50 Climbing Tampa TRACON
Tue 10:49:48 28.3333 -82.0833 180° South 96 110 6,900  Level Tampa TRACON
Tue 10:50:48 28.3000 -82.0667 156° South 98 113 6,900  Level Tampa TRACON
Tue 10:51:48 28.2833 -82.0667 180° South 96 110 6,900 50 Level Tampa TRACON
Tue 10:52:48 28.2500 -82.0667 180° South 94 108 7,000  Climbing Tampa TRACON
Tue 10:53:48 28.2333 -82.0500 139° Southeast 98 113 6,900  Descending Tampa TRACON
Tue 10:54:48 28.2000 -82.0500 180° South 99 114 7,000  Climbing Tampa TRACON
Tue 10:55:48 28.1667 -82.0500 180° South 96 110 6,900 -50 Descending Tampa TRACON
Tue 10:56:48 28.1500 -82.0333 139° Southeast 98 113 6,900  Level Tampa TRACON
Tue 10:57:48 28.1167 -82.0333 180° South 98 113 6,900  Level Tampa TRACON
Tue 10:58:49 28.1000 -82.0333 180° South 96 110 6,900  Level Tampa TRACON
Tue 10:59:49 28.0667 -82.0167 156° South 97 112 6,900 -50 Level Tampa TRACON
Tue 11:00:49 28.0333 -82.0167 180° South 99 114 6,800  Descending Tampa TRACON
Tue 11:01:49 28.0167 -82.0000 139° Southeast 88 101 6,900 50 Climbing Tampa TRACON
Tue 11:02:49 28.0000 -81.9833 139° Southeast 86 99 6,900 50 Level Tampa TRACON
Tue 11:03:49 27.9667 -81.9833 180° South 91 105 7,000  Climbing Tampa TRACON
Tue 11:04:49 27.9500 -81.9667 139° Southeast 97 112 6,900 -33 Descending Tampa TRACON
Tue 11:06:52 27.8989 -81.9711 184° South 76 87 6,900 33 Level Miami Center
Tue 11:07:52 27.8717 -81.9722 182° South 89 102 7,000 50 Climbing Miami Center
Tue 11:08:52 27.8444 -81.9711 178° South 95 109 7,000  Level Miami Center
Tue 11:09:52 27.8214 -81.9725 183° South 101 116 7,000  Level Miami Center
Tue 11:10:52 27.7903 -81.9686 174° South 101 116 7,000 -50 Level Miami Center
Tue 11:11:52 27.7631 -81.9722 187° South 101 116 6,900 -50 Descending Miami Center
Tue 11:12:52 27.7339 -81.9756 186° South 101 116 6,900  Level Miami Center
Tue 11:13:52 27.7064 -81.9814 191° South 101 116 6,900  Level Miami Center
Tue 11:14:52 27.6814 -81.9825 182° South 101 116 6,900  Level Miami Center
Tue 11:15:52 27.6542 -81.9861 187° South 106 122 6,900  Level Miami Center
Tue 11:16:52 27.6269 -81.9869 182° South 106 122 6,900  Level Miami Center
Tue 11:17:52 27.6017 -81.9906 187° South 106 122 6,900  Level Miami Center
Tue 11:18:52 27.5747 -81.9917 182° South 106 122 6,900  Level Miami Center
Tue 11:19:52 27.5497 -81.9906 178° South 101 116 6,900  Level Miami Center
Tue 11:20:52 27.5203 -81.9917 182° South 101 116 6,900  Level Miami Center
Tue 11:21:52 27.4953 -81.9931 183° South 101 116 6,900 50 Level Miami Center
Tue 11:22:52 27.4681 -81.9917 177° South 101 116 7,000 50 Climbing Miami Center
Tue 11:23:52 27.4431 -81.9906 178° South 101 116 7,000  Level Miami Center
Tue 11:24:52 27.4181 -81.9894 178° South 101 116 7,000  Level Miami Center
Tue 11:25:52 27.3931 -81.9883 178° South 101 116 7,000 -50 Level Miami Center
Tue 11:26:52 27.3658 -81.9919 187° South 101 116 6,900 -50 Descending Miami Center
Tue 11:27:52 27.3386 -81.9953 186° South 101 116 6,900  Level Miami Center
Tue 11:28:52 27.3136 -81.9989 187° South 101 116 6,900  Level Miami Center
Tue 11:29:52 27.2864 -82.0000 182° South 101 116 6,900 50 Level Miami Center
Tue 11:30:52 27.2611 -82.0011 182° South 101 116 7,000 50 Climbing Miami Center
Tue 11:31:52 27.2361 -82.0025 183° South 101 116 7,000  Level Miami Center
Tue 11:32:52 27.2092 -81.9989 173° South 101 116 7,000  Level Miami Center
Tue 11:33:52 27.1819 -82.0000 182° South 101 116 7,000 -50 Level Miami Center
Tue 11:34:52 27.1550 -81.9989 178° South 101 116 6,900 -50 Descending Miami Center
Tue 11:35:52 27.1275 -82.0022 186° South 101 116 6,900 50 Level Miami Center
Tue 11:36:52 27.1025 -82.0036 183° South 101 116 7,000  Climbing Miami Center
Tue 11:37:52 27.0756 -82.0022 177° South 101 116 6,900 -50 Descending Miami Center
Tue 11:38:52 27.0503 -82.0036 183° South 101 116 6,900  Level Miami Center
Tue 11:40:00 27.0195 -81.9989 172° South  Level FlightAware Approximate
Tue 11:47:00 26.8301 -81.9580 165° South  Level FlightAware Approximate
Tue 11:48:00 26.8036 -81.9503 165° South  Level FlightAware Approximate
Tue 11:49:00 26.7770 -81.9425 165° South  Level FlightAware Approximate
Tue 11:50:00 26.7505 -81.9348 165° South  Level FlightAware Approximate
Tue 11:51:00 26.7240 -81.9270 165° South  Level FlightAware Approximate
Tue 11:52:00 26.6974 -81.9193 165° South  Level FlightAware Approximate
Tue 11:53:00 26.6709 -81.9116 165° South  Level FlightAware Approximate
Tue 11:54:00 26.6443 -81.9038 165° South  Level FlightAware Approximate
Tue 11:55:00 26.6178 -81.8961 165° South  Level FlightAware Approximate
Tue 11:56:00 26.5913 -81.8884 165° South  Level FlightAware Approximate
Tue 11:57:00 26.5647 -81.8806 165° South  Level FlightAware Approximate
Tue 11:58:00 26.5382 -81.8729 165° South  Level FlightAware Approximate
Tue 11:59:00 26.5115 -81.8656 170° South  Level FlightAware Approximate
Tue 12:00:00 26.4845 -81.8602 170° South  Level FlightAware Approximate
Tue 12:01:00 26.4575 -81.8548 170° South  Level FlightAware Approximate
Tue 12:02:00 26.4306 -81.8491 163° South  Level FlightAware Approximate
Tue 12:03:00 26.4044 -81.8403 163° South  Level FlightAware Approximate
Tue 12:04:00 26.3781 -81.8316 163° South  Level FlightAware Approximate
Tue 12:05:00 26.3518 -81.8228 163° South  Level FlightAware Approximate
Tue 12:06:00 26.3254 -81.8144 166° South  Level FlightAware Approximate
Tue 12:07:00 26.2988 -81.8068 166° South  Level FlightAware Approximate
Tue 12:08:00 26.2723 -81.7992 166° South  Level FlightAware Approximate
Tue 12:09:00 26.2457 -81.7916 166° South  Level FlightAware Approximate
Tue 12:10:00 26.2191 -81.7840 166° South  Level FlightAware Approximate
Tue 12:11:00 26.1924 -81.7773 167° South  Level FlightAware Approximate
Tue 12:12:00 26.1656 -81.7706 167° South  Level FlightAware Approximate
Tue 12:13:00 26.1500 -81.7667 167° South  Level FlightAware Approximate
Tue 12:14:00 26.1524 -81.7756 167° South  Level Estimated
Tue 12:15:00 26.1524 -81.7756 167° South  Level Estimated
Tue 12:16:00 26.1524 -81.7756 167° South  Level Estimated
Tue 12:17:00 26.1524 -81.7756 167° South  Level Estimated
Tue 12:18:00 26.1524 -81.7756 167° South  Level Estimated
Tue 12:19:00 26.1524 -81.7756 167° South  Level Estimated
Tue 12:20:00 26.1524 -81.7756 167° South  Level Estimated
Tue 12:21:00 26.1524 -81.7756 167° South  Level Estimated
Tue 12:22:00 26.1524 -81.7756 167° South  Level Estimated
Tue 12:23:00 26.1524 -81.7756 167° South  Level Estimated
Tue 12:24:00 26.1524 -81.7756 167° South  Level Estimated
Tue 12:25:00 26.1524 -81.7756 167° South  Level Estimated
Tue 12:26:00 26.1524 -81.7756 167° South  Level Estimated
Tue 12:27:00 26.1524 -81.7756 167° South  Level Estimated
Tue 12:28:00 26.1524 -81.7756 167° South  Level Estimated

Login

Don't have an account? Register now (free) for customized features, flight alerts, and more!